Time;durP1;ratioP1;P1;durP2;ratioP2;P2;SDS_P1;SDS_P2;PMS_P1;PMS_P2;Temp;Humidity;BMP_temperature;BMP_pressure;BME280_temperature;BME280_humidity;BME280_pressure;Samples;Min_cycle;Max_cycle;Signal;HPM_P1;HPM_P2
2023/09/08 00:02:26;;;;;;;14.82;7.38;;;16.50;99.90;;;16.42;100.00;97472.44;5029674;28;20028;-38
2023/09/08 00:04:52;;;;;;;9.85;6.00;;;16.50;99.90;;;16.45;100.00;97472.25;5024746;28;20029;-39
2023/09/08 00:07:17;;;;;;;8.15;6.18;;;16.50;99.90;;;16.50;100.00;97471.97;5022396;28;20052;-40
2023/09/08 00:09:43;;;;;;;8.15;5.28;;;16.50;99.90;;;16.53;100.00;97477.13;5027294;28;20037;-39
2023/09/08 00:12:09;;;;;;;7.93;5.63;;;16.60;99.90;;;16.57;100.00;97474.19;5026950;28;20074;-38
2023/09/08 00:14:35;;;;;;;7.30;5.05;;;16.60;99.90;;;16.59;100.00;97466.94;5031901;28;20422;-38
2023/09/08 00:17:00;;;;;;;7.22;4.93;;;16.70;99.90;;;16.61;100.00;97465.03;5022676;28;20041;-40
2023/09/08 00:19:26;;;;;;;7.00;4.70;;;16.70;99.90;;;16.53;100.00;97443.38;5023411;28;20589;-39
2023/09/08 00:21:52;;;;;;;6.85;4.90;;;16.70;99.90;;;16.63;100.00;97464.13;5026153;28;20033;-40
2023/09/08 00:24:18;;;;;;;7.25;4.47;;;16.70;99.90;;;16.61;100.00;97459.72;5027237;28;20040;-39
2023/09/08 00:26:44;;;;;;;8.95;4.70;;;16.70;99.90;;;16.55;100.00;97443.28;5027710;28;20433;-39
2023/09/08 00:29:10;;;;;;;6.28;4.60;;;16.70;99.90;;;16.54;100.00;97453.06;5024523;28;20116;-38
2023/09/08 00:31:35;;;;;;;5.85;4.60;;;16.70;99.90;;;16.60;100.00;97463.34;5024994;28;20041;-40
2023/09/08 00:34:01;;;;;;;5.90;4.53;;;16.70;99.90;;;16.55;100.00;97464.59;5027164;28;20450;-38
2023/09/08 00:36:27;;;;;;;5.15;4.50;;;16.60;99.90;;;16.46;100.00;97466.00;5029587;28;20040;-38
2023/09/08 00:38:52;;;;;;;6.20;4.50;;;16.60;99.90;;;16.38;100.00;97461.13;5027757;28;20122;-39
2023/09/08 00:41:18;;;;;;;7.88;4.75;;;16.50;99.90;;;16.37;100.00;97462.06;5028808;28;20040;-38
2023/09/08 00:43:44;;;;;;;6.57;5.22;;;16.40;99.90;;;16.35;100.00;97468.44;5027535;28;20045;-39
2023/09/08 00:46:10;;;;;;;5.55;4.53;;;16.40;99.90;;;16.31;100.00;97467.75;5027284;28;20037;-38
2023/09/08 00:48:37;;;;;;;5.60;4.97;;;16.40;99.90;;;16.25;100.00;97465.44;5031442;28;20037;-39
2023/09/08 00:51:05;;;;;;;6.88;4.72;;;16.40;99.90;;;16.20;100.00;97468.41;5024726;28;20033;-39
2023/09/08 00:53:31;;;;;;;7.20;4.88;;;16.30;99.90;;;16.14;100.00;97460.75;5027635;28;20078;-40
2023/09/08 00:55:58;;;;;;;6.00;4.72;;;16.30;99.90;;;16.09;100.00;97467.28;5025936;28;20562;-38
2023/09/08 00:58:24;;;;;;;7.13;5.03;;;16.20;99.90;;;16.05;100.00;97460.44;5022378;28;20044;-37
2023/09/08 01:00:50;;;;;;;9.50;4.93;;;16.20;99.90;;;16.00;100.00;97469.53;5024648;28;20384;-41
2023/09/08 01:03:16;;;;;;;8.70;5.20;;;16.10;99.90;;;15.95;100.00;97463.66;5032168;28;20029;-39
2023/09/08 01:05:42;;;;;;;6.65;5.50;;;16.10;99.90;;;15.94;100.00;97467.25;5029391;28;20112;-39
2023/09/08 01:08:09;;;;;;;7.82;5.18;;;16.10;99.90;;;15.91;100.00;97461.25;5023244;28;20515;-39
2023/09/08 01:10:36;;;;;;;6.95;5.28;;;16.00;99.90;;;15.86;100.00;97463.28;5030592;28;20082;-38
2023/09/08 01:13:03;;;;;;;7.05;5.35;;;16.00;99.90;;;15.80;100.00;97456.53;5026547;28;20030;-39
2023/09/08 01:15:28;;;;;;;7.22;5.28;;;15.90;99.90;;;15.78;100.00;97456.63;5026140;28;20112;-41
2023/09/08 01:17:54;;;;;;;6.82;5.43;;;15.90;99.90;;;15.76;100.00;97465.63;5025408;28;20025;-38
2023/09/08 01:20:24;;;;;;;6.70;5.55;;;15.90;99.90;;;15.75;100.00;97459.44;5027880;28;20041;-38
2023/09/08 01:23:18;;;;;;;7.68;5.50;;;15.80;99.90;;;15.72;100.00;97462.25;5021731;28;20280;-40
2023/09/08 01:25:59;;;;;;;7.82;5.18;;;15.80;99.90;;;15.67;100.00;97459.00;5025832;28;20033;-39
2023/09/08 01:28:26;;;;;;;7.05;5.53;;;15.80;99.90;;;15.62;100.00;97453.09;5026115;28;20068;-39
2023/09/08 01:30:53;;;;;;;6.55;5.00;;;15.80;99.90;;;15.67;100.00;97461.66;5021434;28;21097;-39
2023/09/08 01:33:19;;;;;;;6.57;5.10;;;15.80;99.90;;;15.67;100.00;97464.31;5020225;28;20033;-39
2023/09/08 01:35:45;;;;;;;8.20;5.30;;;15.70;99.90;;;15.63;100.00;97463.63;5025954;28;20200;-38
2023/09/08 01:38:11;;;;;;;8.43;5.28;;;15.70;99.90;;;15.61;100.00;97465.53;5022964;28;20041;-39
2023/09/08 01:40:36;;;;;;;7.20;5.10;;;15.70;99.90;;;15.62;100.00;97463.72;5025017;28;20040;-38
2023/09/08 01:43:02;;;;;;;7.47;5.70;;;15.70;99.90;;;15.62;100.00;97461.06;5027377;28;20406;-38
2023/09/08 01:45:28;;;;;;;6.63;5.30;;;15.70;99.90;;;15.59;100.00;97459.41;5029743;28;20068;-38
2023/09/08 01:47:53;;;;;;;7.50;5.07;;;15.70;99.90;;;15.58;100.00;97457.72;5031578;28;20040;-40
2023/09/08 01:50:22;;;;;;;6.82;4.88;;;15.70;99.90;;;15.53;100.00;97457.13;5026037;28;20294;-39
2023/09/08 01:52:48;;;;;;;7.07;4.97;;;15.60;99.90;;;15.46;100.00;97456.59;5028955;28;20036;-38
2023/09/08 01:55:16;;;;;;;8.13;5.65;;;15.60;99.90;;;15.43;100.00;97454.13;5029921;28;20554;-39
2023/09/08 01:57:42;;;;;;;7.65;5.25;;;15.60;99.90;;;15.36;100.00;97441.25;5028269;28;20098;-40
2023/09/08 02:00:09;;;;;;;6.95;5.38;;;15.60;99.90;;;15.41;100.00;97448.00;5026033;28;20279;-40
2023/09/08 02:02:44;;;;;;;8.90;6.18;;;15.50;99.90;;;15.37;100.00;97449.13;5026480;28;20072;-38
2023/09/08 02:05:09;;;;;;;7.20;5.32;;;15.50;99.90;;;15.34;100.00;97453.75;5016419;28;20104;-38
2023/09/08 02:07:35;;;;;;;6.90;5.57;;;15.40;99.90;;;15.25;100.00;97449.81;5027892;28;20033;-38
2023/09/08 02:10:01;;;;;;;6.75;5.45;;;15.40;99.90;;;15.14;100.00;97441.56;5023092;28;20682;-39
2023/09/08 02:12:27;;;;;;;6.85;5.45;;;15.40;99.90;;;15.08;100.00;97440.97;5047625;23;20045;-36
2023/09/08 02:14:52;;;;;;;6.28;5.22;;;15.40;99.90;;;15.15;100.00;97452.13;5031259;28;20496;-36
2023/09/08 02:17:18;;;;;;;8.25;6.35;;;15.30;99.90;;;15.12;100.00;97454.09;5019440;28;20025;-36
2023/09/08 02:19:44;;;;;;;9.52;5.97;;;15.20;99.90;;;15.07;100.00;97454.31;5025519;28;20423;-36
2023/09/08 02:22:10;;;;;;;7.47;5.70;;;15.20;99.90;;;15.03;100.00;97458.09;5014735;28;20064;-37
2023/09/08 02:24:36;;;;;;;10.05;6.13;;;15.20;99.90;;;14.99;100.00;97452.09;5007185;28;20072;-37
2023/09/08 02:27:02;;;;;;;8.32;6.30;;;15.10;99.90;;;14.95;100.00;97447.91;5012415;28;20570;-37
2023/09/08 02:29:28;;;;;;;8.10;5.85;;;15.10;99.90;;;14.92;100.00;97449.88;5013879;28;20060;-37
2023/09/08 02:31:54;;;;;;;7.90;5.82;;;15.00;99.90;;;14.87;100.00;97444.78;5008913;28;20399;-37
2023/09/08 02:34:19;;;;;;;12.40;6.10;;;15.00;99.90;;;14.85;100.00;97441.34;5011590;28;20498;-37
2023/09/08 02:36:47;;;;;;;7.40;5.80;;;15.00;99.90;;;14.84;100.00;97440.50;5014423;28;20045;-37
2023/09/08 02:39:13;;;;;;;8.02;6.25;;;15.00;99.90;;;14.77;100.00;97424.97;5012259;28;20528;-37
2023/09/08 02:41:39;;;;;;;6.97;5.65;;;15.00;99.90;;;14.89;100.00;97440.25;5006888;28;20076;-37
2023/09/08 02:44:05;;;;;;;7.75;5.70;;;15.00;99.90;;;14.92;100.00;97441.91;5013809;28;20468;-36
2023/09/08 02:46:31;;;;;;;8.48;6.25;;;15.10;99.90;;;14.92;100.00;97442.75;5014156;28;20575;-37
2023/09/08 02:48:56;;;;;;;6.53;5.43;;;15.10;99.90;;;14.90;100.00;97447.28;5012151;28;20034;-36
2023/09/08 02:51:22;;;;;;;7.32;5.32;;;15.00;99.90;;;14.89;100.00;97445.56;5011346;28;20057;-37
2023/09/08 02:53:48;;;;;;;7.40;5.47;;;15.00;99.90;;;14.84;100.00;97435.19;5006863;28;20401;-36
2023/09/08 02:56:13;;;;;;;7.03;5.50;;;15.00;99.90;;;14.87;100.00;97437.66;5004997;28;20064;-37
2023/09/08 02:58:39;;;;;;;7.22;5.80;;;15.00;99.90;;;14.92;100.00;97436.59;5007575;28;20029;-37
2023/09/08 03:01:13;;;;;;;8.57;5.28;;;15.10;99.90;;;14.92;100.00;97441.91;5009249;28;20393;-37
2023/09/08 03:03:40;;;;;;;7.78;6.00;;;15.10;99.90;;;14.89;100.00;97438.47;5011922;28;20029;-37
2023/09/08 03:06:05;;;;;;;9.57;5.63;;;15.00;99.90;;;14.88;100.00;97444.72;5010852;28;20469;-36
2023/09/08 03:08:31;;;;;;;6.43;5.20;;;15.00;99.90;;;14.84;100.00;97439.63;5004274;28;20068;-37
2023/09/08 03:11:00;;;;;;;9.10;5.57;;;15.00;99.90;;;14.79;100.00;97445.19;5014385;28;20041;-37
2023/09/08 03:13:26;;;;;;;7.57;5.45;;;14.90;99.90;;;14.76;100.00;97439.19;5019374;28;20104;-37
2023/09/08 03:15:52;;;;;;;6.97;6.03;;;14.90;99.90;;;14.72;100.00;97441.16;5013493;28;20041;-37
2023/09/08 03:18:18;;;;;;;7.53;5.43;;;14.90;99.90;;;14.60;100.00;97432.03;5016046;28;20037;-36
2023/09/08 03:20:49;;;;;;;7.28;5.00;;;14.90;99.90;;;14.65;100.00;97435.31;5030968;28;20025;-36
2023/09/08 03:23:15;;;;;;;6.45;5.25;;;14.80;99.90;;;14.66;100.00;97434.38;5017099;28;20036;-36
2023/09/08 03:25:41;;;;;;;8.80;5.43;;;14.80;99.90;;;14.65;100.00;97434.47;5013460;28;20033;-36
2023/09/08 03:28:06;;;;;;;6.72;5.03;;;14.80;99.90;;;14.67;100.00;97435.22;5016239;28;20047;-36
2023/09/08 03:30:32;;;;;;;7.53;4.65;;;14.80;99.90;;;14.62;100.00;97430.16;5013638;28;20397;-36
2023/09/08 03:32:58;;;;;;;6.88;5.40;;;14.80;99.90;;;14.60;100.00;97437.34;5017425;28;20136;-36
2023/09/08 03:35:23;;;;;;;6.47;4.93;;;14.70;99.90;;;14.57;100.00;97431.31;5014170;28;20039;-36
2023/09/08 03:37:49;;;;;;;6.60;5.20;;;14.80;99.90;;;14.57;100.00;97432.19;5010931;28;20030;-36
2023/09/08 03:40:15;;;;;;;8.13;5.30;;;14.70;99.90;;;14.57;100.00;97441.91;5013418;28;20473;-36
2023/09/08 03:42:42;;;;;;;6.65;5.43;;;14.70;99.90;;;14.54;100.00;97437.66;5014194;28;20029;-36
2023/09/08 03:45:08;;;;;;;5.93;4.82;;;14.70;99.90;;;14.55;100.00;97438.50;5012554;28;20424;-37
2023/09/08 03:47:34;;;;;;;6.80;5.43;;;14.70;99.90;;;14.51;100.00;97440.44;5016094;28;20120;-37
2023/09/08 03:50:00;;;;;;;9.45;5.43;;;14.70;99.90;;;14.47;100.00;97441.56;5010762;28;20434;-37
2023/09/08 03:52:26;;;;;;;8.05;5.97;;;14.60;99.90;;;14.42;100.00;97427.66;5010300;28;20480;-37
2023/09/08 03:54:51;;;;;;;7.28;5.30;;;14.60;99.90;;;14.39;100.00;97439.31;5008327;28;20029;-37
2023/09/08 03:57:17;;;;;;;8.20;5.78;;;14.60;99.90;;;14.40;100.00;97438.34;5013072;28;20037;-37
2023/09/08 03:59:43;;;;;;;7.88;5.78;;;14.60;99.90;;;14.37;100.00;97442.97;5013958;28;20040;-37
2023/09/08 04:02:09;;;;;;;9.75;5.95;;;14.60;99.90;;;14.36;100.00;97433.31;5013380;28;20029;-37
2023/09/08 04:04:34;;;;;;;6.97;5.10;;;14.50;99.90;;;14.34;100.00;97441.34;5006705;28;20131;-37
2023/09/08 04:07:00;;;;;;;6.63;5.65;;;14.50;99.90;;;14.38;100.00;97452.66;5012597;28;20048;-37
2023/09/08 04:09:27;;;;;;;7.68;6.05;;;14.50;99.90;;;14.41;100.00;97452.47;5012628;28;20721;-36
2023/09/08 04:11:54;;;;;;;8.23;6.03;;;14.50;99.90;;;14.34;100.00;97438.69;5013316;28;20033;-37
2023/09/08 04:14:23;;;;;;;8.05;5.32;;;14.60;99.90;;;14.41;100.00;97452.47;5014189;28;20040;-37
2023/09/08 04:16:49;;;;;;;9.10;5.15;;;14.60;99.90;;;14.39;100.00;97447.28;5009927;28;20388;-37
2023/09/08 04:19:14;;;;;;;7.40;5.32;;;14.50;99.90;;;14.37;100.00;97453.56;5012663;28;20650;-37
2023/09/08 04:21:41;;;;;;;7.47;5.60;;;14.50;99.90;;;14.33;100.00;97458.19;5010014;28;20037;-37
2023/09/08 04:24:07;;;;;;;7.07;5.28;;;14.50;99.90;;;14.29;100.00;97452.16;5008902;28;20037;-37
2023/09/08 04:26:32;;;;;;;6.65;5.45;;;14.50;99.90;;;14.27;100.00;97450.53;5008560;28;20082;-37
2023/09/08 04:28:58;;;;;;;7.47;5.65;;;14.40;99.90;;;14.23;100.00;97454.28;5010570;28;20092;-37
2023/09/08 04:31:24;;;;;;;7.55;6.00;;;14.40;99.90;;;14.20;100.00;97457.09;5008916;28;20030;-37
2023/09/08 04:33:49;;;;;;;8.35;5.95;;;14.40;99.90;;;14.17;100.00;97454.59;5009762;28;20033;-37
2023/09/08 04:36:15;;;;;;;9.35;5.93;;;14.30;99.90;;;14.15;100.00;97454.66;5013214;28;20033;-37
2023/09/08 04:38:41;;;;;;;8.68;5.47;;;14.30;99.90;;;14.15;100.00;97453.81;5013821;28;20622;-37
2023/09/08 04:41:07;;;;;;;11.38;5.85;;;14.30;99.90;;;14.17;100.00;97460.75;5012498;28;20087;-37
2023/09/08 04:43:32;;;;;;;6.38;5.30;;;14.30;99.90;;;14.18;100.00;97466.94;5013152;28;20034;-37
2023/09/08 04:45:58;;;;;;;8.35;5.55;;;14.30;99.90;;;14.16;100.00;97467.00;5009936;28;20068;-37
2023/09/08 04:48:24;;;;;;;9.65;6.05;;;14.30;99.90;;;14.16;100.00;97463.47;5014371;28;20307;-37
2023/09/08 04:50:51;;;;;;;8.90;5.68;;;14.30;99.90;;;14.15;100.00;97464.44;5007761;28;20105;-37
2023/09/08 04:53:16;;;;;;;8.13;5.75;;;14.30;99.90;;;14.13;100.00;97462.69;5007113;28;20455;-37
2023/09/08 04:55:43;;;;;;;7.30;5.75;;;14.30;99.90;;;14.12;100.00;97468.94;5004043;28;20472;-37
2023/09/08 04:58:09;;;;;;;7.13;5.97;;;14.30;99.90;;;14.04;100.00;97451.72;5002788;28;20476;-37
2023/09/08 05:00:34;;;;;;;6.45;5.57;;;14.30;99.90;;;14.11;100.00;97469.03;5008499;28;20036;-37
2023/09/08 05:03:00;;;;;;;8.32;6.07;;;14.30;99.90;;;14.12;100.00;97468.94;5008939;28;20037;-37
2023/09/08 05:05:26;;;;;;;9.18;6.80;;;14.30;99.90;;;14.13;100.00;97469.81;5009775;28;20730;-37
2023/09/08 05:07:55;;;;;;;8.98;6.38;;;14.30;99.90;;;14.15;100.00;97465.28;5013162;28;20037;-37
2023/09/08 05:10:22;;;;;;;13.52;6.40;;;14.30;99.90;;;14.13;100.00;97462.69;5008228;28;20155;-37
2023/09/08 05:12:49;;;;;;;8.20;6.38;;;14.30;99.90;;;14.15;100.00;97465.28;5011744;28;20025;-37
2023/09/08 05:15:16;;;;;;;9.55;6.93;;;14.30;99.90;;;14.17;100.00;97465.19;5009607;28;20429;-36
2023/09/08 05:17:42;;;;;;;9.95;7.00;;;14.30;99.90;;;14.19;100.00;97466.81;5009873;28;20410;-36
2023/09/08 05:20:09;;;;;;;12.32;7.40;;;14.40;99.90;;;14.21;100.00;97466.75;5009170;28;20205;-36
2023/09/08 05:22:36;;;;;;;9.40;6.68;;;14.40;99.90;;;14.14;100.00;97445.00;5006088;28;20030;-36
2023/09/08 05:25:02;;;;;;;9.85;6.80;;;14.40;99.90;;;14.28;100.00;97466.38;5005617;28;20470;-36
2023/09/08 05:27:28;;;;;;;11.50;6.88;;;14.50;99.90;;;14.32;100.00;97461.78;5001373;28;20509;-36
2023/09/08 05:29:54;;;;;;;9.30;7.22;;;14.50;99.90;;;14.36;100.00;97471.28;5010754;28;20128;-36
2023/09/08 05:32:20;;;;;;;9.70;6.82;;;14.50;99.90;;;14.39;100.00;97468.50;5010943;28;20041;-36
2023/09/08 05:34:45;;;;;;;8.43;6.32;;;14.60;99.90;;;14.42;100.00;97472.78;5012433;28;20378;-36
2023/09/08 05:37:11;;;;;;;12.10;7.30;;;14.60;99.90;;;14.45;100.00;97470.81;5010154;28;20042;-36
2023/09/08 05:39:37;;;;;;;10.23;6.25;;;14.60;99.90;;;14.48;100.00;97472.44;5009059;28;20226;-37
2023/09/08 05:42:03;;;;;;;10.35;6.90;;;14.70;99.90;;;14.58;100.00;97476.38;4997492;28;20064;-37
2023/09/08 05:44:29;;;;;;;9.45;7.38;;;14.80;99.90;;;14.66;100.00;97483.94;5010837;28;20128;-37
2023/09/08 05:46:54;;;;;;;7.82;6.50;;;14.80;99.90;;;14.74;100.00;97484.41;5009041;28;20034;-37
2023/09/08 05:49:20;;;;;;;8.70;6.25;;;14.90;99.90;;;14.79;100.00;97484.19;5014133;28;20390;-38
2023/09/08 05:51:46;;;;;;;8.15;6.20;;;15.00;99.90;;;14.80;100.00;97476.09;5014574;28;20049;-37
2023/09/08 05:54:12;;;;;;;9.75;6.55;;;15.00;99.90;;;14.92;100.00;97479.06;5007199;28;20108;-37
2023/09/08 05:56:38;;;;;;;13.23;6.05;;;15.10;99.90;;;14.96;100.00;97484.13;5010925;28;20033;-36
2023/09/08 05:59:04;;;;;;;7.70;6.35;;;15.10;99.90;;;15.02;100.00;97481.16;5008737;28;20045;-37
2023/09/08 06:01:31;;;;;;;10.13;6.25;;;15.20;99.90;;;15.08;100.00;97477.31;5000278;28;20046;-37
2023/09/08 06:03:57;;;;;;;9.50;6.40;;;15.30;99.90;;;15.15;100.00;97477.84;5009584;28;20049;-36
2023/09/08 06:06:23;;;;;;;9.02;7.18;;;15.30;99.90;;;15.23;100.00;97481.78;5014670;28;20532;-37
2023/09/08 06:08:48;;;;;;;8.63;6.88;;;15.40;99.90;;;15.29;100.00;97480.59;5011846;28;20025;-37
2023/09/08 06:11:14;;;;;;;10.45;6.97;;;15.50;99.90;;;15.39;100.00;97484.44;5009279;28;20033;-37
2023/09/08 06:13:40;;;;;;;9.18;6.90;;;15.60;99.90;;;15.43;100.00;97477.16;5012249;28;20452;-37
2023/09/08 06:16:06;;;;;;;10.20;7.03;;;15.70;99.90;;;15.57;100.00;97484.38;5004196;28;20112;-36
2023/09/08 06:18:32;;;;;;;13.60;6.95;;;15.80;99.90;;;15.62;100.00;97477.84;5009519;28;20121;-37
2023/09/08 06:20:57;;;;;;;10.52;6.70;;;15.80;99.90;;;15.73;100.00;97492.34;5007898;28;20037;-36
2023/09/08 06:23:23;;;;;;;10.63;6.80;;;15.90;99.90;;;15.80;100.00;97483.97;5012887;28;20074;-36
2023/09/08 06:25:49;;;;;;;10.30;7.60;;;16.00;99.90;;;15.89;100.00;97482.59;5011565;28;20112;-37
2023/09/08 06:28:15;;;;;;;9.82;7.03;;;16.10;99.90;;;15.97;100.00;97490.13;5011169;28;20055;-36
2023/09/08 06:30:41;;;;;;;13.43;6.75;;;16.20;99.90;;;16.05;100.00;97487.91;5010398;28;20041;-36
2023/09/08 06:33:08;;;;;;;10.20;7.03;;;16.20;99.90;;;16.12;100.00;97489.25;5005082;28;20036;-36
2023/09/08 06:35:34;;;;;;;11.02;8.13;;;16.30;99.90;;;16.16;100.00;97480.13;5011965;28;20080;-36
2023/09/08 06:38:00;;;;;;;12.75;7.15;;;16.40;99.90;;;16.29;100.00;97490.91;5006355;28;20389;-36
2023/09/08 06:40:26;;;;;;;12.20;7.72;;;16.50;99.90;;;16.29;100.00;97474.94;5023783;28;20060;-36
2023/09/08 06:42:51;;;;;;;9.65;7.05;;;16.60;99.90;;;16.46;100.00;97486.44;5000066;28;20405;-36
2023/09/08 06:45:17;;;;;;;12.05;8.30;;;16.60;99.90;;;16.55;100.00;97499.19;5012276;28;20120;-36
2023/09/08 06:47:43;;;;;;;11.25;7.22;;;16.70;99.90;;;16.62;100.00;97489.88;5012702;28;20052;-36
2023/09/08 06:50:10;;;;;;;9.90;6.97;;;16.80;99.90;;;16.68;100.00;97496.66;5013271;28;22169;-36
2023/09/08 06:52:35;;;;;;;11.43;7.78;;;16.90;99.90;;;16.75;100.00;97490.00;5011939;28;20087;-36
2023/09/08 06:55:01;;;;;;;10.45;7.70;;;16.90;99.90;;;16.83;100.00;97492.19;5009147;28;20167;-36
2023/09/08 06:57:27;;;;;;;12.63;8.00;;;17.00;99.90;;;16.90;100.00;97490.91;5011600;28;20030;-36
2023/09/08 06:59:53;;;;;;;16.38;8.48;;;17.10;99.90;;;16.98;100.00;97497.47;5008508;28;20600;-36
2023/09/08 07:02:18;;;;;;;9.73;7.03;;;17.20;99.90;;;17.07;100.00;97484.56;5011824;28;20034;-36
2023/09/08 07:04:44;;;;;;;11.02;7.10;;;17.30;99.90;;;17.18;100.00;97500.72;5015334;28;20041;-36
2023/09/08 07:07:10;;;;;;;11.60;7.70;;;17.30;99.90;;;17.24;100.00;97502.16;5011623;28;20197;-36
2023/09/08 07:09:36;;;;;;;10.75;7.28;;;17.40;99.90;;;17.35;100.00;97489.88;5008984;28;20115;-36
2023/09/08 07:12:06;;;;;;;8.88;6.60;;;17.50;99.90;;;17.48;100.00;97497.06;5009881;28;20030;-37
2023/09/08 07:14:32;;;;;;;9.88;7.47;;;17.60;99.90;;;17.53;100.00;97494.97;5013148;28;20061;-36
2023/09/08 07:16:58;;;;;;;10.90;8.18;;;17.70;99.90;;;17.60;100.00;97496.28;5003083;28;20131;-37
2023/09/08 07:19:24;;;;;;;9.98;7.22;;;17.80;99.90;;;17.64;100.00;97495.16;4999198;28;20719;-36
2023/09/08 07:21:50;;;;;;;7.63;6.30;;;17.90;99.90;;;17.74;100.00;97498.94;5010897;28;20472;-36
2023/09/08 07:24:16;;;;;;;8.75;6.72;;;17.90;99.90;;;17.84;100.00;97498.38;5013485;28;20052;-36
2023/09/08 07:26:42;;;;;;;10.02;6.18;;;18.00;99.90;;;17.96;100.00;97497.56;5009424;28;20037;-36
2023/09/08 07:29:07;;;;;;;7.68;5.90;;;18.10;99.90;;;18.09;100.00;97494.97;5009280;28;20075;-37
2023/09/08 07:31:33;;;;;;;6.75;5.75;;;18.20;99.90;;;18.22;100.00;97490.53;5007834;28;20026;-36
2023/09/08 07:33:59;;;;;;;9.40;6.57;;;18.30;99.90;;;18.35;100.00;97495.91;5009664;28;20141;-36
2023/09/08 07:36:25;;;;;;;9.43;5.93;;;18.50;99.90;;;18.49;100.00;97503.00;5007547;28;20390;-36
2023/09/08 07:38:50;;;;;;;6.22;4.95;;;18.60;99.90;;;18.63;100.00;97499.41;5010506;28;20017;-36
2023/09/08 07:41:16;;;;;;;8.70;5.97;;;18.80;99.90;;;18.78;100.00;97497.47;5010207;28;20022;-36
2023/09/08 07:43:44;;;;;;;8.27;6.05;;;18.90;99.90;;;18.91;100.00;97497.50;5005519;28;20025;-37
2023/09/08 07:46:10;;;;;;;6.25;5.05;;;19.00;99.90;;;19.02;100.00;97490.47;4996087;28;20045;-37
2023/09/08 07:48:35;;;;;;;8.45;6.07;;;19.10;99.90;;;19.15;100.00;97501.16;5002000;28;21641;-36
2023/09/08 07:51:01;;;;;;;7.57;5.78;;;19.20;99.90;;;19.25;100.00;97504.03;5004434;28;20401;-36
2023/09/08 07:53:27;;;;;;;9.48;6.32;;;19.30;99.90;;;19.35;100.00;97499.75;5006189;28;20026;-36
2023/09/08 07:55:53;;;;;;;12.40;7.63;;;19.40;99.90;;;19.42;100.00;97501.03;4999042;28;20480;-37
2023/09/08 07:58:19;;;;;;;9.57;6.05;;;19.50;99.90;;;19.53;100.00;97496.72;5001834;28;20048;-36
2023/09/08 08:00:44;;;;;;;8.15;5.70;;;19.60;99.90;;;19.65;100.00;97501.22;5001005;28;20037;-36
2023/09/08 08:03:10;;;;;;;10.93;6.75;;;19.70;99.90;;;19.75;100.00;97499.59;4997885;28;20041;-37
2023/09/08 08:05:36;;;;;;;9.45;6.13;;;19.80;99.90;;;19.87;100.00;97500.53;5003881;28;20033;-36
2023/09/08 08:08:02;;;;;;;9.20;6.25;;;19.90;99.90;;;19.99;100.00;97499.63;4997373;28;20410;-37
2023/09/08 08:10:28;;;;;;;11.55;6.22;;;20.00;99.90;;;20.13;100.00;97500.41;4999239;28;20167;-37
2023/09/08 08:12:54;;;;;;;9.80;6.30;;;20.10;99.90;;;20.27;100.00;97496.72;5001224;28;20044;-36
2023/09/08 08:15:24;;;;;;;10.32;7.13;;;20.20;99.90;;;20.44;100.00;97495.44;5000131;28;20493;-37
2023/09/08 08:17:49;;;;;;;9.75;6.57;;;20.40;99.90;;;20.62;100.00;97491.41;4996035;28;20125;-37
2023/09/08 08:20:19;;;;;;;9.23;6.30;;;20.50;99.90;;;20.82;100.00;97497.91;4995519;28;20033;-37
2023/09/08 08:22:45;;;;;;;8.63;6.20;;;20.80;99.90;;;21.00;100.00;97492.94;4993988;28;20026;-37
2023/09/08 08:25:12;;;;;;;10.65;6.65;;;20.90;99.90;;;21.17;100.00;97503.22;4994615;28;20033;-36
2023/09/08 08:27:39;;;;;;;12.45;7.30;;;21.10;99.90;;;21.19;100.00;97486.13;5006418;28;20145;-37
2023/09/08 08:30:06;;;;;;;10.05;6.43;;;21.20;99.90;;;21.35;100.00;97500.91;5003262;28;20033;-37
2023/09/08 08:32:33;;;;;;;12.32;6.93;;;21.20;99.90;;;21.39;100.00;97490.78;4997600;28;20037;-37
2023/09/08 08:34:59;;;;;;;12.10;6.95;;;21.30;99.90;;;21.49;100.00;97497.16;5002913;28;20025;-36
2023/09/08 08:37:25;;;;;;;7.43;6.15;;;21.40;99.90;;;21.66;100.00;97502.97;4996742;28;20041;-37
2023/09/08 08:39:50;;;;;;;8.15;6.07;;;21.50;99.90;;;21.78;100.00;97502.00;4999336;28;20420;-37
2023/09/08 08:42:16;;;;;;;7.80;5.82;;;21.60;99.90;;;21.90;100.00;97494.78;5004955;28;20152;-37
2023/09/08 08:44:43;;;;;;;8.52;5.95;;;21.80;99.90;;;22.01;100.00;97492.06;5008565;28;20052;-37
2023/09/08 08:47:11;;;;;;;8.57;6.25;;;21.90;99.90;;;22.10;100.00;97494.00;5002435;28;20049;-37
2023/09/08 08:49:38;;;;;;;9.27;6.32;;;22.00;99.90;;;22.19;100.00;97495.06;5011316;28;20033;-37
2023/09/08 08:52:08;;;;;;;8.27;6.50;;;22.10;99.90;;;22.30;100.00;97494.22;5008673;28;20232;-37
2023/09/08 08:54:38;;;;;;;10.90;6.00;;;22.20;99.90;;;22.38;100.00;97488.19;4998974;28;20080;-37
2023/09/08 08:57:04;;;;;;;8.60;5.90;;;22.30;99.90;;;22.43;100.00;97485.97;5000056;28;20037;-37
2023/09/08 08:59:31;;;;;;;8.80;5.80;;;22.30;99.90;;;22.51;100.00;97488.03;4988288;28;20613;-37
2023/09/08 09:01:59;;;;;;;6.82;5.57;;;22.40;99.90;;;22.57;100.00;97496.41;4985995;28;20104;-37
2023/09/08 09:04:25;;;;;;;7.57;5.43;;;22.40;99.90;;;22.68;100.00;97487.44;4989763;28;20226;-37
2023/09/08 09:06:53;;;;;;;8.60;5.15;;;22.50;99.90;;;22.80;100.00;97488.25;4997402;28;20266;-37
2023/09/08 09:09:19;;;;;;;8.57;5.70;;;22.60;99.90;;;22.90;100.00;97481.09;4997538;28;20316;-38
2023/09/08 09:11:45;;;;;;;8.23;5.18;;;22.70;99.90;;;23.01;100.00;97482.88;4993443;28;20069;-39
2023/09/08 09:14:11;;;;;;;10.35;5.80;;;22.80;99.90;;;23.12;99.03;97485.50;4996318;28;20108;-38
2023/09/08 09:16:44;;;;;;;6.72;5.82;;;22.90;99.90;;;23.15;98.99;97487.06;4998523;28;20704;-38
2023/09/08 09:19:20;;;;;;;8.10;5.70;;;23.00;99.90;;;23.16;96.40;97476.16;4989625;28;20087;-38
2023/09/08 09:21:48;;;;;;;10.63;6.18;;;23.10;99.90;;;23.26;100.00;97481.63;4986421;28;20607;-38
2023/09/08 09:24:43;;;;;;;8.02;6.28;;;23.10;99.90;;;23.27;96.91;97486.00;4997253;28;20025;-38
2023/09/08 09:27:10;;;;;;;7.65;5.82;;;23.20;99.90;;;23.37;97.67;97489.59;5005671;28;20042;-38
2023/09/08 09:29:51;;;;;;;11.38;5.53;;;23.20;99.90;;;23.46;96.39;97493.31;5006418;28;20060;-40
2023/09/08 09:32:23;;;;;;;7.35;5.93;;;23.30;99.90;;;23.53;96.04;97496.31;5008862;28;20033;-37
2023/09/08 09:34:56;;;;;;;7.97;5.60;;;23.40;99.90;;;23.60;92.18;97495.63;4996780;28;20033;-39
2023/09/08 09:37:22;;;;;;;8.48;5.88;;;23.40;99.90;;;23.53;91.15;97485.56;5005324;28;20563;-37
2023/09/08 09:39:53;;;;;;;8.80;6.40;;;23.50;99.90;;;23.57;91.91;97495.06;5008327;28;20083;-37
2023/09/08 09:42:20;;;;;;;8.00;5.75;;;23.40;99.90;;;23.60;91.87;97495.63;5000832;28;20033;-37
2023/09/08 09:44:52;;;;;;;9.07;5.63;;;23.40;99.90;;;23.66;92.76;97486.16;5000203;28;20512;-37
2023/09/08 09:47:19;;;;;;;5.80;5.15;;;23.50;99.90;;;23.76;92.85;97489.75;4996170;28;20033;-37
2023/09/08 09:49:47;;;;;;;12.82;6.43;;;23.60;99.90;;;23.88;92.48;97489.66;4999381;28;20029;-37
2023/09/08 09:52:20;;;;;;;11.25;6.60;;;23.70;99.90;;;23.97;92.73;97488.81;5003581;28;20037;-38
2023/09/08 09:54:50;;;;;;;9.52;6.35;;;23.80;99.90;;;24.05;90.79;97493.50;5002777;28;20025;-38
2023/09/08 09:57:16;;;;;;;12.25;5.88;;;23.90;99.90;;;24.10;94.50;97489.44;5006637;28;20033;-38
2023/09/08 09:59:43;;;;;;;10.52;6.38;;;23.90;99.90;;;24.18;91.43;97486.03;5006954;28;20030;-37
2023/09/08 10:02:19;;;;;;;8.63;5.90;;;24.00;99.90;;;24.22;92.63;97486.59;5003027;28;20301;-37
2023/09/08 10:04:47;;;;;;;8.02;5.30;;;24.10;99.90;;;24.27;89.44;97485.19;5003542;28;20096;-37
2023/09/08 10:07:15;;;;;;;8.55;5.55;;;24.10;99.90;;;24.32;88.94;97477.53;5001009;28;20041;-38
2023/09/08 10:09:40;;;;;;;12.25;6.30;;;24.10;99.90;;;24.35;88.61;97476.38;5011928;28;20596;-37
2023/09/08 10:12:09;;;;;;;8.88;6.03;;;24.20;99.90;;;24.38;88.73;97481.50;5004481;28;20030;-37